Dunkins Mill, South Carolina
Current Conditions -  °F | °C
As of 7:58 PM on Saturday 25 Oct 2014 (Local Time) from KSSC Reporting Station
Clear Clear  
Wind Chill: 59°   Ceiling: Unl
Heat Index: 59°   Visibility: 10mi
Dew Point: 47°   Wind: 0mph
Humidity: 65%   Direction: NA
Pressure: 29.95"   Gusts: NA
Location:  34.1106°N, 80.4967°W
Report Text: KSSC 252358Z AUTO 00000KT 10SM CLR 15/08 A2995 RMK AO2 SLP144 T01490083 10238 20145 52007 $
Loading
Personal Weather Stations






























Interactive Weather Map New forecast layout! Learn more

10-Day Weather Forecast

Advertisements
Track Severe Weather on mobile